Relevés horaires Bierset (Belgique)


Relevés horaires à Bierset - Vendredi 21 Févr. 2020
Heure UTC1 Température [°C] Vent [km/h] Hum. [%] Pres.4 [hPa] Visi. [Km] Nébu. [octa] Préc.5 [mm] Cond.
2m. Res. Ros. Dir.2 Vit. Moy. Raf.3
23:00 5.7 2.6 1.5 SSO 14.8 14.8 20.4 74 1026(-1.7/3h) 30 6/8 -- --
22:00 5.8 3.1 1.2 SSO 13.0 14.8 20.4 72 1026.5(-0.6/3h) 30 6/8 -- --
21:00 5.6 2.5 1.3 SSO 14.8 14.8 20.4 74 1026.8(-0.6/3h) 30 4/8 -- --
20:00 5.5 3 1.3 SSO 11.1 13.0 16.7 74 1027.6(0.5/3h) 25 7/8 -- --
19:00 5.9 3.5 1.6 SSO 11.1 13.0 18.5 74 1027(0.1/3h) 25 7/8 -- --
18:00 6.6 4 1.7 SSO 13.0 16.7 24.1 71 1027.3(0.3/3h) 18 6/8 0/12h
--
17:00 7.0 4.2 1.3 SO 14.8 16.7 24.1 67 1027(-0.5/3h) 18 7/8 -- --
16:00 7.7 5.1 1.8 SO 14.8 16.7 22.2 66 1026.9(-1.2/3h) 18 6/8 -- --
15:00 8.0 5.5 2.3 SO 14.8 16.7 22.2 67 1026.9(-1.4/3h) 16 7/8 -- --
14:00 8.1 5.6 2.4 OSO 14.8 16.7 22.2 67 1027.4(-1.2/3h) 16 7/8 -- --
13:00 8.0 5.5 2.3 OSO 14.8 16.7 20.4 67 1028.1(0.1/3h) 16 7/8 -- --
12:00 7.4 4.7 2.1 SO 14.8 14.8 20.4 69 1028.4(0.6/3h) 16 7/8 0/6h
--
11:00 6.6 4 2.8 SO 13.0 13.0 18.5 77 1028.7(1.3/3h) 16 7/8 -- --
10:00 5.4 2.6 1.8 SO 13.0 13.0 18.5 78 1028.3(1.3/3h) 16 7/8 -- --
09:00 4.2 1.1 1.0 SO 13.0 13.0 16.7 80 1028(1.4/3h) 15 5/8 -- --
08:00 3.1 0.1 0.4 SO 11.1 11.1 14.8 82 1027.7(1.6/3h) 15 4/8 -- --
07:00 2.0 -1.2 -0.1 SO 11.1 11.1 14.8 86 1027.3(1.5/3h) 14 5/8 -- --
06:00 1.6 -1.2 -0.2 SO 9.3 14.8 18.5 88 1026.8(1.9/3h) 30 2/8 6/12h
--
05:00 1.9 -1.3 -0.2 OSO 11.1 14.8 18.5 86 1026.2(2.1/3h) 30 0/8 -- --
04:00 2.3 -0.8 -0.3 OSO 11.1 13.0 18.5 83 1025.7(2.8/3h) 30 0/8 -- --
03:00 2.1 -1.1 -0.1 OSO 11.1 14.8 18.5 85 1024.8(2.9/3h) 30 0/8 -- --
02:00 2.9 -0.8 0.3 OSO 14.8 14.8 18.5 83 1024(3.3/3h) 30 0/8 -- --
01:00 2.9 -0.5 0.8 OSO 13.0 13.0 18.5 86 1022.8(3.7/3h) 30 1/8 -- --
00:00 3.5 0.6 1.6 O 11.1 20.4 31.5 87 1021.8(5.2/3h) 30 2/8 6/6h
6.5/24h
--

1 Coordinated Universal Time. Actuellement il est 18:00 locale et 16:00 UTC.

2 Le vent souffle depuis la direction indiquée vers la direction oposée.

3 Les rafales max. sont disponible 40 min après l'heure du relevé.

4 Pour les stations d'altitude (plus de 600m) le géopotentiel du niveau le plus proche de la pression obligatoire est indiqué.

5 Les stations disposant d'un diffuseur peuvent indiquer "trace". Cela signifie que des précipitations ont touchés le sol mais que la quantité est inférieure à 0.1 mm.

Récapitulatif de la journée
Température [°C] Vent [km/h] Ensoleillement4 [h] Precipitations totale5 [mm] Pression [Hpa]
Min1 Max.2 Moy.3 Max. Min Max.
1.5 8.6 14.7 31.5 0 h 0 min 0 1021.8 1028.7

1 Température minimale relevée entre 18:00 UTC la veille et 18:00 UTC le jour donné.

2 Température maximale relevée entre 06:00 UTC le jour donné et 06:00 UTC le lendemain.

3 Vent moyen de la journée basé sur les relevés horaires.

4 Ensoleillement en heures relevé entre 06:00 UTC la veille et 06:00 UTC le jour donné.

5 Précipitations totales tombées entre 06:00 UTC la jour donné et 06:00 UTC le lendemain.

Graphiques horaires